You are not logged in, Click here to log in
福岡空港/板付機場 FUK / RJFF 日本福岡縣福岡市博多區
ICAO: RJFF Country: 日本福岡縣福岡市博多區
Latitude: 33.5903 Longitude: 130.447
Total Arrivals: 149 Total Departures: 133
Latest Arrival: AE140 (RKPC-RJFF)Lun. Wang Latest Departure: NH1205 (RJFF-ROAH)Lun. Wang
Scenery:
METAR : RJFF 221011Z 29016G26KT 9999 FEW035 SCT045 BKN050 12/M01 Q1025 RMK 1CU035 3SC045 5SC050 A3029

福岡空港/板付機場 FUK